Delaware, AR (72835)

6:18 PM CST on January 18, 2017 (GMT -0600)
Bay Ridge Golf Club | | Change Station

Elev 390 ft 35.26 °N, 93.21 °W | Updated 14 seconds ago

Overcast
Overcast
46.7 °F
Feels Like 47 °F
N
0.0
Wind Variable Wind from SE

Today
High -- | Low -- °F
--% Chance of Precip.
Yesterday
High -- | Low -- °F
Precip. -- in
Pressure 30.04 in
Visibility 10.0 miles
Clouds Overcast 2000 ft
Windchill 47 °F
Dew Point 44 °F
Humidity 91%
Rainfall 0.00 in
Snow Depth Not available.
7:20 AM 5:27 PM
Waning Gibbous, 59% visible
METAR KRUE 182353Z AUTO 06003KT 10SM OVC020 08/06 A3005 RMK AO2 SLP172 60000 T00830056 10083 20078 56018
Pressure 30.04 in
Visibility 10.0 miles
Clouds Overcast 2000 ft
Windchill 47 °F
Dew Point 44 °F
Humidity 91%
Rainfall 0.00 in
Snow Depth Not available.
7:20 AM 5:27 PM
Waning Gibbous, 59% visible
METAR KRUE 182353Z AUTO 06003KT 10SM OVC020 08/06 A3005 RMK AO2 SLP172 60000 T00830056 10083 20078 56018

Get Your Daily Forecast Email!

Thanks for signing up!

Be on the lookout for a verification email in your inbox.

You'll start receiving the daily forecast at 8 AM.

×

10-Day Weather Forecast

Almanac

Astronomy

Jan. 18, 2017 Rise Set
Actual Time
Civil Twilight
Nautical Twilight
Astronomical Twilight
Moon
Length of Visible Light
Length of Day
Tomorrow will be .
, % of the Moon is Illuminated

Today's Extremes

State Highs State Lows

Community

WunderPhotos

Upload Photos

1,962,540 photos uploaded!

WunderBlog® & News

Nearby

Air Quality

  Air Quality AQ Index Pollutant
Not available.

Snow Depth

Station Depth Elevation

Earthquake Activity

City Distance Mag. Time & Date
Minimum magnitude displayed is 2.5.

Coastal Water Temperatures

Place Temperature

Stations

Nearby Weather Stations

Station Location Temp. Windchill Dew Point Humidity Wind Precip. Elev Updated Type
                   

Watches & Warnings

There are currently no watches in effect.